ADDS TAF Board (Experimental) INFO Settings
IDs: Format: Expanded Condensed

KTPA - Tampa Intl Arpt, FL, US

Issued at 1133 UTC 01 Jul 2016
Updated at 1323 UTC 01 Jul 2016
Time1253Z 01/14Z 01/15Z 01/16Z 01/17Z 01/18Z 01/19Z 01/20Z 01/21Z 01/22Z 01/23Z 02/00Z 02/01Z 02/02Z
Type OBS PRVL
  [TEMP]  
PRVL PRVL PRVL PRVL PRVL PRVL PRVL PRVL PRVL PRVL PRVL PRVL
VIS 10 >6 >6 >6 >6 >6 >6 >6 >6 >6 >6 >6 >6 >6
CIG -- 250
  [25]  
250 250 250 250 250 250 250 250 250 250 250 150
Cover SCT BKN
  [BKN]  
BKN BKN BKN BKN BKN BKN BKN BKN BKN BKN BKN OVC
FltCat VFR VFR
  [MVFR]  
VFR VFR VFR VFR VFR VFR VFR VFR VFR VFR VFR VFR
WX -- VCSH
  [--]  
VCSH VCSH VCSH VCSH VCSH -- -- -- -- -- -- --
WDir 240 140
[140]
230 230 230 230 230 260 260 260 260 260 260 190
WSpd 5 4
  [4]  
7 7 7 7 7 8 8 8 8 8 8 4
WGst -- --
  [--]  
-- -- -- -- -- -- -- -- -- -- -- --
R01/19
XWnd 4 -3 5 5 5 5 5 8 8 8 8 8 8 1
XGst -- 0 -- -- -- -- -- -- -- -- -- -- -- --
HWnd -3 -3 -5 -5 -5 -5 -5 -2 -2 -2 -2 -2 -2 -4
HGst -- 0 -- -- -- -- -- -- -- -- -- -- -- --
R10/28
XWnd -3 -3 -5 -5 -5 -5 -5 -2 -2 -2 -2 -2 -2 -4
XGst -- 0 -- -- -- -- -- -- -- -- -- -- -- --
HWnd -4 3 -5 -5 -5 -5 -5 -8 -8 -8 -8 -8 -8 -1
HGst -- 0 -- -- -- -- -- -- -- -- -- -- -- --

Raw TAF
KTPA 011133Z 0112/0212 14004KT P6SM VCSH SCT030 SCT120 BKN250
  TEMPO 0112/0115 BKN025
  FM011500 23007KT P6SM VCSH SCT030 SCT120 BKN250
  FM012000 26008KT P6SM SCT035 SCT100 BKN250
  FM020200 19004KT P6SM SCT035 OVC150


Raw METAR
KTPA 011253Z 24005KT 10SM FEW015 SCT250 29/24 A3006 RMK AO2 SLP178 TCU DSNT SE AND W-NW T02890244
KTPA 011153Z 20004KT 10SM SCT025 SCT040CB BKN250 28/24 A3005 RMK AO2 SLP174 SCT040 V BKN CB N-S MOV NE 70017 T02780239 10283 20261 53014
KTPA 011053Z COR 15004KT 10SM SCT028CB BKN250 27/24 A3003 RMK AO2 SLP167 T02670244 CB SW MOV UNK AND DSNT NW

METAR Board
Radar Display
Forecast Discussion

TAF Board Legend

Potential Impact
Threat None Slight Moderate High
Visibility (sm) ≥5.1 5.1>X≥3 3>X≥1 <1
Ceiling (100 ft) ≥30.1 30.1>X≥10 10>X≥5 <5
Wind Speed (kt) <10 10≤X<20 20≤X<30 ≥30
Wind Gust (kt) <15 15≤X<25 25≤X<35 ≥35
Weather No Wx Reported VCTS,-TS,-FZRA,SN TS,FZRA +TS,+FZRA,+SN